Time;durP1;ratioP1;P1;durP2;ratioP2;P2;SDS_P1;SDS_P2;PMS_P1;PMS_P2;Temp;Humidity;BMP_temperature;BMP_pressure;BME280_temperature;BME280_humidity;BME280_pressure;Samples;Min_cycle;Max_cycle;Signal;HPM_P1;HPM_P2
2023/05/27 00:00:13;;;;;;;8.80;7.90;;;;;;;18.07;68.71;100422.52;107588;1257;72089;-81
2023/05/27 00:02:41;;;;;;;9.50;8.10;;;;;;;18.08;68.84;100421.99;107609;1257;61302;-81
2023/05/27 00:05:09;;;;;;;8.70;7.80;;;;;;;18.10;68.93;100421.61;107554;1257;61167;-80
2023/05/27 00:07:36;;;;;;;9.30;8.30;;;;;;;18.12;68.96;100421.79;107556;1257;73448;-80
2023/05/27 00:10:05;;;;;;;9.30;8.00;;;;;;;18.16;69.19;100413.61;107725;1260;72906;-79
2023/05/27 00:12:32;;;;;;;9.60;8.60;;;;;;;18.21;69.30;100417.29;107738;1258;72688;-79
2023/05/27 00:15:00;;;;;;;8.50;7.70;;;;;;;18.25;69.37;100418.51;107717;1258;61807;-80
2023/05/27 00:17:27;;;;;;;9.40;8.50;;;;;;;18.31;69.42;100416.32;107633;1257;61352;-79
2023/05/27 00:19:55;;;;;;;8.60;7.70;;;;;;;18.38;69.37;100411.85;107684;1257;74673;-79
2023/05/27 00:22:23;;;;;;;9.10;8.20;;;;;;;18.44;69.32;100410.95;107458;1257;72636;-79
2023/05/27 00:24:50;;;;;;;9.00;7.80;;;;;;;18.46;69.13;100410.64;107636;1258;72697;-79
2023/05/27 00:27:18;;;;;;;9.40;8.10;;;;;;;18.46;69.01;100412.20;107642;1257;61781;-79
2023/05/27 00:29:46;;;;;;;9.20;8.40;;;;;;;18.38;69.33;100414.88;107651;1257;61116;-79
2023/05/27 00:32:14;;;;;;;8.90;8.00;;;;;;;18.36;69.30;100417.31;107630;1258;72953;-79
2023/05/27 00:34:42;;;;;;;9.40;8.20;;;;;;;18.32;69.31;100414.75;107599;1257;73696;-79
2023/05/27 00:37:09;;;;;;;9.20;8.30;;;;;;;18.26;69.29;100419.34;107712;1257;71109;-79
2023/05/27 00:39:37;;;;;;;8.60;7.80;;;;;;;18.24;69.33;100417.90;107781;1257;61698;-80
2023/05/27 00:42:05;;;;;;;12.10;8.70;;;;;;;18.22;69.36;100413.41;107591;1260;61125;-79
2023/05/27 00:44:33;;;;;;;9.90;8.20;;;;;;;18.22;69.41;100411.09;108394;1257;74716;-80
2023/05/27 00:47:01;;;;;;;8.10;7.30;;;;;;;18.25;69.62;100408.30;108564;1257;72578;-79
2023/05/27 00:49:28;;;;;;;8.60;7.80;;;;;;;18.26;69.58;100411.84;107506;1264;72082;-80
2023/05/27 00:51:56;;;;;;;8.50;7.60;;;;;;;18.26;69.76;100409.23;107581;1257;62370;-79
2023/05/27 00:54:23;;;;;;;8.90;8.00;;;;;;;18.27;69.73;100416.52;107545;1258;61247;-79
2023/05/27 00:56:51;;;;;;;10.00;8.20;;;;;;;18.29;69.87;100409.43;107586;1257;74604;-79
2023/05/27 00:59:19;;;;;;;9.00;8.10;;;;;;;18.31;69.88;100407.06;107607;1257;72733;-80
2023/05/27 01:01:48;;;;;;;9.00;8.10;;;;;;;18.32;69.90;100406.77;107664;1263;71526;-80
2023/05/27 01:04:17;;;;;;;8.60;7.70;;;;;;;18.33;70.04;100400.23;107732;1257;61100;-80
2023/05/27 01:07:06;;;;;;;9.00;8.10;;;;;;;18.36;70.04;100400.71;107569;1257;61151;-80
2023/05/27 01:09:45;;;;;;;9.00;7.90;;;;;;;18.39;70.11;100398.34;107693;1257;74703;-79
2023/05/27 01:12:16;;;;;;;9.50;8.50;;;;;;;18.41;70.17;100400.98;107476;1257;71756;-80
2023/05/27 01:14:44;;;;;;;9.60;8.60;;;;;;;18.42;70.27;100395.13;107476;1259;71319;-80
2023/05/27 01:17:12;;;;;;;9.50;8.10;;;;;;;18.42;70.52;100391.66;107353;1259;61887;-80
2023/05/27 01:19:47;;;;;;;9.30;8.40;;;;;;;18.44;70.66;100396.12;107602;1257;61184;-80
2023/05/27 01:22:15;;;;;;;11.00;8.60;;;;;;;18.48;70.68;100396.58;107740;1257;75141;-79
2023/05/27 01:24:42;;;;;;;8.70;7.80;;;;;;;18.50;70.70;100398.63;107677;1257;72917;-80
2023/05/27 01:27:15;;;;;;;10.20;8.30;;;;;;;18.50;70.66;100398.41;107494;1263;71488;-80
2023/05/27 01:29:43;;;;;;;9.20;8.30;;;;;;;18.52;70.75;100397.77;107461;1260;61367;-80
2023/05/27 01:32:18;;;;;;;8.60;7.80;;;;;;;18.53;70.63;100398.70;107409;1257;61127;-80
2023/05/27 01:34:52;;;;;;;10.00;7.90;;;;;;;18.54;70.55;100396.79;107643;1257;74713;-80
2023/05/27 01:37:20;;;;;;;9.00;8.10;;;;;;;18.53;70.36;100396.98;107681;1258;71502;-80
2023/05/27 01:39:49;;;;;;;9.00;8.00;;;;;;;18.45;70.07;100398.30;107511;1257;71481;-81
2023/05/27 01:42:16;;;;;;;8.90;8.00;;;;;;;18.38;69.76;100395.56;107514;1265;60918;-81
2023/05/27 01:44:45;;;;;;;9.00;7.70;;;;;;;18.31;69.67;100396.95;107584;1257;61174;-81
2023/05/27 01:47:12;;;;;;;8.90;8.00;;;;;;;18.22;69.63;100398.84;107634;1257;76604;-81
2023/05/27 01:49:40;;;;;;;8.70;7.90;;;;;;;18.16;69.56;100402.33;107773;1258;71573;-80
2023/05/27 01:52:08;;;;;;;9.50;8.50;;;;;;;18.11;69.55;100401.38;107829;1257;71701;-81
2023/05/27 01:54:36;;;;;;;9.30;8.40;;;;;;;18.05;69.48;100404.40;107711;1258;61222;-78
2023/05/27 01:57:06;;;;;;;9.10;8.20;;;;;;;17.98;69.49;100408.57;108189;1257;61071;-81
2023/05/27 01:59:34;;;;;;;9.30;8.30;;;;;;;17.89;69.54;100408.27;108911;1257;73387;-78
2023/05/27 02:02:01;;;;;;;8.80;8.00;;;;;;;17.83;69.49;100408.54;108287;1257;73143;-78
2023/05/27 02:04:29;;;;;;;9.70;8.30;;;;;;;17.80;69.75;100404.61;107656;1258;71455;-78
2023/05/27 02:06:56;;;;;;;9.90;8.80;;;;;;;17.79;69.70;100405.20;107584;1257;61555;-78
2023/05/27 02:09:25;;;;;;;9.10;8.20;;;;;;;17.79;69.73;100404.25;107703;1257;59429;-78
2023/05/27 02:11:53;;;;;;;9.10;8.20;;;;;;;17.77;69.69;100403.65;107749;1257;74715;-78
2023/05/27 02:14:21;;;;;;;9.20;8.20;;;;;;;17.77;69.68;100406.73;107667;1257;72810;-78
2023/05/27 02:16:50;;;;;;;9.10;8.20;;;;;;;17.78;69.71;100406.55;107488;1257;71686;-78
2023/05/27 02:19:20;;;;;;;8.90;8.00;;;;;;;17.79;69.64;100407.88;107699;1258;61122;-78
2023/05/27 02:21:47;;;;;;;11.80;8.60;;;;;;;17.78;69.77;100409.30;108765;1257;60090;-79
2023/05/27 02:24:15;;;;;;;9.20;8.30;;;;;;;17.79;69.82;100412.20;108910;1257;74746;-80
2023/05/27 02:26:43;;;;;;;9.20;8.20;;;;;;;17.82;69.68;100410.51;107715;1257;72484;-79
2023/05/27 02:29:10;;;;;;;10.20;8.30;;;;;;;17.84;69.68;100411.31;107508;1259;72782;-79
2023/05/27 02:31:38;;;;;;;9.40;8.40;;;;;;;17.88;69.58;100415.21;107740;1257;61643;-79
2023/05/27 02:34:06;;;;;;;9.70;8.80;;;;;;;17.87;69.52;100416.80;107638;1257;61585;-79
2023/05/27 02:36:34;;;;;;;9.50;8.50;;;;;;;17.87;69.56;100421.24;107658;1257;75525;-79
2023/05/27 02:39:02;;;;;;;10.00;8.20;;;;;;;17.86;69.64;100416.33;107732;1258;72927;-79
2023/05/27 02:41:30;;;;;;;9.40;8.30;;;;;;;17.87;69.72;100417.50;107599;1258;72646;-79
2023/05/27 02:43:58;;;;;;;9.10;8.10;;;;;;;17.90;69.81;100418.63;107478;1257;196122;-79
2023/05/27 02:46:26;;;;;;;9.80;8.80;;;;;;;17.93;69.97;100413.14;107938;1261;59975;-80
2023/05/27 02:48:53;;;;;;;10.10;9.20;;;;;;;17.97;70.00;100413.58;108900;1257;74617;-80
2023/05/27 02:51:21;;;;;;;9.40;8.50;;;;;;;18.01;70.09;100414.77;107450;1257;72646;-79
2023/05/27 02:53:52;;;;;;;9.50;8.70;;;;;;;18.06;70.20;100416.05;107817;1257;73192;-79
2023/05/27 02:56:21;;;;;;;8.70;7.90;;;;;;;18.07;70.11;100411.27;107804;1259;60638;-80
2023/05/27 02:58:49;;;;;;;9.50;8.70;;;;;;;18.03;70.28;100413.41;107728;1259;61224;-80
2023/05/27 03:01:17;;;;;;;10.80;9.80;;;;;;;18.00;70.48;100416.83;107803;1257;73437;-79
2023/05/27 03:03:44;;;;;;;11.30;10.20;;;;;;;17.97;70.67;100413.74;107849;1257;72746;-80
2023/05/27 03:06:13;;;;;;;10.90;9.90;;;;;;;17.97;70.97;100416.91;107709;1257;73655;-83
2023/05/27 03:08:41;;;;;;;11.00;9.90;;;;;;;18.04;71.23;100415.11;107791;1257;60416;-82
2023/05/27 03:11:09;;;;;;;11.30;10.20;;;;;;;18.15;71.32;100413.33;107601;1257;61009;-82
2023/05/27 03:13:37;;;;;;;11.10;10.10;;;;;;;18.27;71.40;100411.77;107661;1257;73385;-80
2023/05/27 03:16:05;;;;;;;11.80;10.60;;;;;;;18.41;71.48;100413.48;107674;1257;70726;-80
2023/05/27 03:18:33;;;;;;;12.90;11.70;;;;;;;18.53;71.47;100410.77;107797;1259;72853;-80
2023/05/27 03:21:03;;;;;;;11.80;10.70;;;;;;;18.66;71.46;100414.39;107795;1257;61765;-80
2023/05/27 03:23:30;;;;;;;12.30;11.10;;;;;;;18.79;71.39;100413.05;107830;1257;61117;-79
2023/05/27 03:25:58;;;;;;;13.00;11.70;;;;;;;18.91;71.39;100412.95;107634;1257;72372;-80
2023/05/27 03:28:25;;;;;;;12.40;11.20;;;;;;;19.01;71.28;100413.31;107814;1257;72786;-80
2023/05/27 03:30:55;;;;;;;13.90;12.60;;;;;;;19.10;71.20;100408.10;107736;1259;71458;-80
2023/05/27 03:33:45;;;;;;;12.90;11.60;;;;;;;19.22;71.14;100406.83;107579;1257;61794;-80
2023/05/27 03:36:12;;;;;;;12.40;11.20;;;;;;;19.33;71.09;100407.50;107644;1257;60261;-80
2023/05/27 03:38:40;;;;;;;12.00;10.80;;;;;;;19.48;70.92;100406.65;107848;1258;74695;-80
2023/05/27 03:41:08;;;;;;;12.30;11.10;;;;;;;19.64;70.81;100411.73;107785;1257;72763;-80
2023/05/27 03:43:37;;;;;;;12.20;11.10;;;;;;;19.78;70.79;100411.48;107719;1259;71462;-81
2023/05/27 03:46:04;;;;;;;12.30;11.10;;;;;;;19.91;70.50;100405.14;107801;1257;61735;-80
2023/05/27 03:48:32;;;;;;;12.60;11.40;;;;;;;20.02;70.27;100405.36;107842;1257;61231;-79
2023/05/27 03:51:00;;;;;;;12.50;11.30;;;;;;;20.13;70.02;100406.96;107816;1257;73481;-81
2023/05/27 03:53:29;;;;;;;11.20;10.10;;;;;;;20.25;69.61;100413.02;107889;1257;72058;-80
2023/05/27 03:55:57;;;;;;;10.00;9.10;;;;;;;20.32;69.31;100414.50;107811;1259;71491;-80
2023/05/27 03:58:25;;;;;;;10.60;8.40;;;;;;;20.31;68.64;100414.70;107865;1257;61723;-80
2023/05/27 04:00:55;;;;;;;9.90;8.90;;;;;;;20.29;68.58;100418.17;107685;1257;61074;-80
2023/05/27 04:03:22;;;;;;;9.30;8.30;;;;;;;20.31;68.25;100414.29;107674;1257;74676;-80
2023/05/27 04:05:50;;;;;;;9.50;8.40;;;;;;;20.34;67.76;100414.98;107743;1257;72973;-80
2023/05/27 04:08:18;;;;;;;12.00;9.10;;;;;;;20.39;67.19;100413.52;107831;1257;70167;-80
2023/05/27 04:10:45;;;;;;;9.80;8.90;;;;;;;20.46;66.46;100415.27;107818;1257;61658;-81
2023/05/27 04:13:13;;;;;;;11.70;9.30;;;;;;;20.57;65.84;100417.83;107734;1257;60016;-80
2023/05/27 04:15:41;;;;;;;11.20;9.60;;;;;;;20.69;65.24;100417.45;107671;1257;73453;-79
2023/05/27 04:18:08;;;;;;;9.80;8.80;;;;;;;20.83;64.73;100416.43;107739;1257;71588;-80
2023/05/27 04:20:41;;;;;;;11.00;9.90;;;;;;;20.98;64.26;100418.26;107659;1259;72741;-80
2023/05/27 04:23:10;;;;;;;10.30;9.20;;;;;;;21.13;63.74;100421.48;107748;1257;61681;-81
2023/05/27 04:25:39;;;;;;;10.30;9.30;;;;;;;21.28;63.07;100416.17;107636;1257;59676;-80
2023/05/27 04:28:08;;;;;;;10.10;9.20;;;;;;;21.45;62.55;100424.59;107748;1258;72789;-80
2023/05/27 04:30:39;;;;;;;10.70;9.70;;;;;;;21.59;61.90;100423.40;107721;1257;71505;-79
2023/05/27 04:33:15;;;;;;;11.00;9.50;;;;;;;21.71;61.43;100423.09;107680;1259;73455;-80
2023/05/27 04:35:43;;;;;;;9.60;8.60;;;;;;;21.82;61.17;100424.42;107582;1259;59987;-80
2023/05/27 04:38:16;;;;;;;10.30;9.00;;;;;;;21.94;61.03;100419.56;107699;1257;61169;-81
2023/05/27 04:40:56;;;;;;;10.20;8.90;;;;;;;22.12;60.62;100421.33;107788;1257;74111;-80
2023/05/27 04:43:34;;;;;;;10.50;7.90;;;;;;;22.27;58.86;100420.13;107729;1257;71690;-80
2023/05/27 04:46:02;;;;;;;9.50;7.50;;;;;;;22.38;56.77;100417.36;107637;1258;73099;-80
2023/05/27 04:48:30;;;;;;;9.80;8.20;;;;;;;22.47;54.94;100418.52;107663;1257;61265;-80
2023/05/27 04:50:58;;;;;;;10.60;8.20;;;;;;;22.54;53.93;100421.30;107681;1257;61112;-80
2023/05/27 04:53:26;;;;;;;11.60;8.20;;;;;;;22.62;53.03;100414.85;107799;1257;73887;-80
2023/05/27 04:55:55;;;;;;;12.90;8.40;;;;;;;22.71;52.42;100413.20;107529;1257;71578;-80
2023/05/27 04:58:46;;;;;;;10.40;8.80;;;;;;;22.80;51.99;100410.20;107535;1260;71457;-80
2023/05/27 05:01:20;;;;;;;9.00;8.10;;;;;;;22.90;51.67;100411.00;107402;1262;61250;-81
2023/05/27 05:04:12;;;;;;;9.20;8.30;;;;;;;23.00;51.37;100413.72;107490;1260;61257;-80
2023/05/27 05:06:50;;;;;;;8.90;7.80;;;;;;;23.09;50.73;100415.15;107503;1260;74375;-80
2023/05/27 05:09:18;;;;;;;10.70;7.30;;;;;;;23.17;50.43;100413.59;107575;1261;72775;-81
2023/05/27 05:11:46;;;;;;;9.10;8.10;;;;;;;23.24;50.07;100412.14;107557;1260;72784;-80
2023/05/27 05:14:14;;;;;;;9.50;8.40;;;;;;;23.29;49.97;100410.89;107447;1260;61073;-80
2023/05/27 05:16:41;;;;;;;9.00;8.10;;;;;;;23.36;49.80;100414.27;107433;1261;62836;-80
2023/05/27 05:19:09;;;;;;;11.80;8.00;;;;;;;23.42;49.05;100406.82;107483;1262;74728;-80
2023/05/27 05:21:38;;;;;;;10.20;8.40;;;;;;;23.49;49.32;100407.02;107566;1260;71990;-80
2023/05/27 05:24:09;;;;;;;9.50;7.60;;;;;;;23.58;48.85;100403.36;107466;1260;72727;-80
2023/05/27 05:26:38;;;;;;;8.90;7.70;;;;;;;23.66;48.73;100407.08;107475;1262;61096;-80
2023/05/27 05:29:06;;;;;;;9.00;7.70;;;;;;;23.74;48.63;100405.37;107418;1260;61149;-80
2023/05/27 05:31:34;;;;;;;10.30;7.80;;;;;;;23.83;48.17;100406.94;107711;1260;74590;-80
2023/05/27 05:34:02;;;;;;;11.10;8.50;;;;;;;23.93;47.61;100405.92;107521;1260;70665;-79
2023/05/27 05:36:32;;;;;;;8.70;7.80;;;;;;;24.01;47.26;100408.87;107838;1257;71913;-80
2023/05/27 05:39:04;;;;;;;9.00;7.50;;;;;;;24.10;47.00;100410.03;107653;1259;61349;-79
2023/05/27 05:41:32;;;;;;;8.90;7.70;;;;;;;24.21;47.11;100412.79;107844;1257;61038;-79
2023/05/27 05:44:00;;;;;;;9.60;8.10;;;;;;;24.32;47.10;100417.59;107670;1258;74731;-79
2023/05/27 05:46:27;;;;;;;16.90;9.00;;;;;;;24.43;47.07;100419.36;107596;1257;71791;-79
2023/05/27 05:48:56;;;;;;;9.80;8.80;;;;;;;24.55;46.93;100419.50;107730;1257;70501;-80
2023/05/27 05:51:43;;;;;;;9.20;8.30;;;;;;;24.67;46.30;100421.16;107679;1259;61115;-80
2023/05/27 05:54:11;;;;;;;10.30;8.80;;;;;;;24.73;45.53;100423.40;107665;1259;61142;-79
2023/05/27 05:56:43;;;;;;;10.00;8.30;;;;;;;24.76;45.35;100423.92;107793;1257;74678;-80
2023/05/27 05:59:11;;;;;;;11.00;8.30;;;;;;;24.77;44.70;100422.32;107624;1257;73048;-79
2023/05/27 06:01:39;;;;;;;8.50;7.50;;;;;;;24.80;44.71;100421.30;107737;1258;71298;-80
2023/05/27 06:04:07;;;;;;;9.50;8.20;;;;;;;24.84;43.98;100418.88;107747;1258;61140;-80
2023/05/27 06:06:39;;;;;;;11.80;8.40;;;;;;;24.88;44.16;100419.83;107868;1257;61240;-79
2023/05/27 06:09:26;;;;;;;9.70;8.10;;;;;;;24.98;43.49;100420.91;107742;1257;74623;-79
2023/05/27 06:11:56;;;;;;;10.70;9.00;;;;;;;25.06;42.91;100422.09;107651;1257;72073;-80
2023/05/27 06:14:23;;;;;;;9.80;8.40;;;;;;;25.14;43.29;100427.91;107575;1262;71523;-80
2023/05/27 06:16:53;;;;;;;9.00;8.00;;;;;;;25.26;43.39;100427.38;107528;1259;61457;-81
2023/05/27 06:19:21;;;;;;;10.80;8.90;;;;;;;25.37;42.77;100429.41;107589;1257;61276;-80
2023/05/27 06:21:48;;;;;;;9.60;8.20;;;;;;;25.49;42.85;100431.83;107665;1259;73423;-80
2023/05/27 06:24:36;;;;;;;9.70;8.80;;;;;;;25.64;42.69;100438.75;107504;1257;71011;-79
2023/05/27 06:27:13;;;;;;;9.20;8.20;;;;;;;25.78;42.35;100439.27;107626;1257;71689;-80
2023/05/27 06:29:41;;;;;;;9.90;8.70;;;;;;;25.90;42.42;100435.90;107504;1259;61401;-80
2023/05/27 06:32:10;;;;;;;12.40;10.00;;;;;;;26.00;43.98;100441.61;107685;1257;61055;-80
2023/05/27 06:34:37;;;;;;;13.30;10.50;;;;;;;26.00;44.50;100440.14;107641;1257;74708;-80
2023/05/27 06:37:06;;;;;;;11.80;10.60;;;;;;;25.93;44.66;100437.75;107727;1257;71454;-80
2023/05/27 06:39:33;;;;;;;12.10;10.30;;;;;;;25.87;44.71;100445.13;107548;1257;72166;-81
2023/05/27 06:42:01;;;;;;;11.50;10.30;;;;;;;25.83;45.10;100445.77;107668;1258;61225;-80
2023/05/27 06:44:44;;;;;;;10.80;9.80;;;;;;;25.82;45.27;100452.71;107618;1257;61003;-80
2023/05/27 06:47:18;;;;;;;12.10;10.30;;;;;;;25.85;45.14;100454.80;107761;1257;74739;-80
2023/05/27 06:49:46;;;;;;;13.60;10.90;;;;;;;25.87;45.45;100455.79;107624;1258;71591;-79
2023/05/27 06:52:14;;;;;;;13.40;10.70;;;;;;;25.88;45.23;100460.25;107523;1257;72700;-79
2023/05/27 06:55:02;;;;;;;11.90;10.80;;;;;;;25.78;45.10;100466.77;107755;1257;61111;-79
2023/05/27 06:58:01;;;;;;;11.90;10.70;;;;;;;25.69;45.28;100472.92;107613;1257;60521;-80
2023/05/27 07:00:45;;;;;;;12.70;10.90;;;;;;;25.66;45.02;100470.36;107740;1257;74565;-81
2023/05/27 07:03:33;;;;;;;12.90;11.00;;;;;;;25.63;44.83;100470.55;107723;1257;71499;-79
2023/05/27 07:06:01;;;;;;;11.70;10.50;;;;;;;25.57;44.63;100474.56;107623;1259;71407;-80
2023/05/27 07:08:31;;;;;;;13.30;10.90;;;;;;;25.48;44.92;100463.59;107665;1259;61111;-80
2023/05/27 07:11:06;;;;;;;12.30;11.00;;;;;;;25.41;45.12;100467.52;107601;1257;61253;-81
2023/05/27 07:13:34;;;;;;;11.40;10.30;;;;;;;25.42;45.47;100466.98;107681;1259;74735;-80
2023/05/27 07:16:02;;;;;;;12.30;10.80;;;;;;;25.44;45.45;100470.32;107704;1258;71516;-80
2023/05/27 07:18:30;;;;;;;11.90;10.70;;;;;;;25.45;45.47;100470.50;107650;1259;72720;-79
2023/05/27 07:20:58;;;;;;;12.60;10.20;;;;;;;25.46;45.41;100470.58;107682;1257;61114;-80
2023/05/27 07:23:26;;;;;;;13.30;10.50;;;;;;;25.48;45.29;100473.92;107688;1259;61157;-83
2023/05/27 07:26:02;;;;;;;12.50;10.50;;;;;;;25.51;45.10;100474.37;107637;1257;74858;-81
2023/05/27 07:28:31;;;;;;;12.10;10.60;;;;;;;25.53;45.27;100473.31;107767;1257;71543;-81
2023/05/27 07:31:07;;;;;;;11.10;10.00;;;;;;;25.54;44.87;100474.59;107772;1259;72469;-81
2023/05/27 07:33:41;;;;;;;11.70;10.40;;;;;;;25.58;44.92;100475.04;107699;1258;61143;-81
2023/05/27 07:36:10;;;;;;;12.50;10.60;;;;;;;25.61;44.53;100474.34;107689;1258;61036;-79
2023/05/27 07:38:37;;;;;;;12.50;10.60;;;;;;;25.67;44.54;100473.11;107723;1259;75492;-80
2023/05/27 07:41:05;;;;;;;11.80;10.00;;;;;;;25.72;44.34;100473.67;107755;1257;71882;-81
2023/05/27 07:43:33;;;;;;;11.70;10.60;;;;;;;25.76;44.07;100477.52;107582;1257;72706;-80
2023/05/27 07:46:00;;;;;;;13.50;10.40;;;;;;;25.78;43.92;100477.24;107540;1260;61108;-79
2023/05/27 07:48:28;;;;;;;12.70;10.30;;;;;;;25.74;44.04;100469.58;107607;1259;61075;-80
2023/05/27 07:50:56;;;;;;;11.90;10.50;;;;;;;25.71;44.29;100468.59;107745;1256;74082;-80
2023/05/27 07:53:24;;;;;;;11.30;10.10;;;;;;;25.75;44.19;100471.39;107700;1257;73192;-81
2023/05/27 07:55:52;;;;;;;10.60;9.60;;;;;;;25.78;43.92;100474.34;107756;1260;72673;-79
2023/05/27 07:58:19;;;;;;;12.30;11.00;;;;;;;25.83;44.01;100474.95;107727;1257;61241;-80
2023/05/27 08:01:07;;;;;;;13.00;10.50;;;;;;;25.95;43.02;100472.82;107648;1257;61344;-80
2023/05/27 08:03:35;;;;;;;10.90;9.80;;;;;;;26.02;42.44;100467.06;107691;1257;74688;-79
2023/05/27 08:06:26;;;;;;;11.40;10.10;;;;;;;26.10;42.59;100459.62;107559;1257;71163;-80
2023/05/27 08:09:03;;;;;;;11.50;10.30;;;;;;;26.22;42.03;100463.36;107770;1257;71291;-79
2023/05/27 08:11:50;;;;;;;11.60;10.40;;;;;;;26.36;41.90;100462.80;107725;1258;61115;-80
2023/05/27 08:14:36;;;;;;;10.40;9.30;;;;;;;26.57;42.10;100460.13;107733;1257;60144;-80
2023/05/27 08:17:10;;;;;;;10.90;9.70;;;;;;;26.79;41.46;100456.69;107748;1259;73408;-80
2023/05/27 08:19:43;;;;;;;10.70;9.60;;;;;;;27.00;40.90;100454.31;107803;1257;73035;-82
2023/05/27 08:22:22;;;;;;;10.60;9.60;;;;;;;27.21;40.35;100456.18;107622;1259;72946;-80
2023/05/27 08:25:08;;;;;;;12.00;9.80;;;;;;;27.42;40.57;100452.61;107682;1258;61257;-80
2023/05/27 08:28:01;;;;;;;11.60;9.90;;;;;;;27.55;39.68;100448.69;107553;1257;61145;-79
2023/05/27 08:30:47;;;;;;;11.30;9.80;;;;;;;27.55;38.91;100446.95;107706;1257;74666;-81
2023/05/27 08:33:21;;;;;;;12.10;10.90;;;;;;;27.46;39.22;100449.21;107746;1257;71948;-79
2023/05/27 08:35:49;;;;;;;10.70;9.70;;;;;;;27.34;39.16;100449.85;107824;1257;72717;-81
2023/05/27 08:38:17;;;;;;;11.50;10.40;;;;;;;27.20;39.42;100450.54;107700;1257;61251;-79
2023/05/27 08:40:44;;;;;;;11.50;9.10;;;;;;;27.04;39.43;100451.71;107707;1257;61185;-80
2023/05/27 08:43:12;;;;;;;9.70;8.80;;;;;;;26.93;39.28;100450.00;107652;1257;73991;-80
2023/05/27 08:45:44;;;;;;;12.70;9.40;;;;;;;26.87;39.63;100445.54;107775;1257;71639;-80
2023/05/27 08:48:12;;;;;;;13.20;10.50;;;;;;;26.85;39.80;100447.39;107674;1257;72709;-80
2023/05/27 08:50:41;;;;;;;10.70;9.60;;;;;;;26.82;39.95;100446.41;107818;1257;59348;-80
2023/05/27 08:53:08;;;;;;;11.20;9.80;;;;;;;26.82;40.17;100439.83;107866;1259;59509;-81
2023/05/27 08:55:38;;;;;;;10.70;9.60;;;;;;;26.84;40.24;100438.20;107666;1258;74709;-80
2023/05/27 08:58:06;;;;;;;10.40;9.40;;;;;;;26.84;40.23;100437.66;107680;1259;72049;-81
2023/05/27 09:00:38;;;;;;;9.90;8.90;;;;;;;26.94;40.24;100435.27;107614;1259;70631;-81
2023/05/27 09:03:19;;;;;;;9.10;8.20;;;;;;;27.05;39.25;100429.73;107742;1259;61093;-79
2023/05/27 09:05:47;;;;;;;11.60;9.10;;;;;;;27.22;39.45;100423.29;107606;1258;60136;-80
2023/05/27 09:08:15;;;;;;;10.90;9.80;;;;;;;27.46;39.86;100420.20;107760;1259;74667;-79
2023/05/27 09:10:43;;;;;;;12.20;9.20;;;;;;;27.75;39.33;100412.85;107719;1258;72612;-81
2023/05/27 09:13:10;;;;;;;10.20;9.10;;;;;;;28.04;39.01;100411.16;107671;1259;73156;-80
2023/05/27 09:15:40;;;;;;;9.50;8.50;;;;;;;28.31;37.83;100411.09;107690;1259;61142;-80
2023/05/27 09:18:07;;;;;;;9.60;8.60;;;;;;;28.54;37.38;100410.16;107760;1259;62630;-80
2023/05/27 09:20:35;;;;;;;10.40;9.20;;;;;;;28.72;36.60;100406.19;107754;1259;65827;-80
2023/05/27 09:23:04;;;;;;;13.50;9.90;;;;;;;28.85;36.83;100411.35;107665;1258;62671;-80
2023/05/27 09:25:32;;;;;;;10.40;9.10;;;;;;;28.96;36.63;100407.18;107745;1259;71404;-80
2023/05/27 09:27:59;;;;;;;10.60;9.50;;;;;;;29.10;36.50;100404.91;107758;1259;61132;-81
2023/05/27 09:30:28;;;;;;;10.90;8.90;;;;;;;29.21;35.83;100405.11;107733;1257;59974;-79
2023/05/27 09:33:03;;;;;;;9.70;8.40;;;;;;;29.28;35.58;100397.82;107690;1259;65823;-79
2023/05/27 09:35:31;;;;;;;10.50;9.20;;;;;;;29.33;35.58;100390.29;107854;1257;72938;-79
2023/05/27 09:38:08;;;;;;;11.20;8.90;;;;;;;29.38;35.16;100383.94;107741;1258;63828;-80
2023/05/27 09:40:37;;;;;;;8.70;7.80;;;;;;;29.42;35.11;100382.08;107774;1259;61041;-79
2023/05/27 09:43:05;;;;;;;12.40;8.70;;;;;;;29.39;35.48;100382.30;107861;1258;61224;-80
2023/05/27 09:45:33;;;;;;;11.10;8.30;;;;;;;29.25;35.23;100387.59;107713;1257;64510;-80
2023/05/27 09:48:01;;;;;;;9.30;8.30;;;;;;;29.02;35.01;100385.23;107628;1257;72782;-79
2023/05/27 09:50:28;;;;;;;9.90;8.40;;;;;;;28.81;35.41;100386.36;107608;1260;63783;-80
2023/05/27 09:52:56;;;;;;;8.80;7.00;;;;;;;28.63;35.72;100388.94;107734;1257;61143;-80
2023/05/27 09:55:40;;;;;;;10.00;7.30;;;;;;;28.45;35.28;100392.04;107571;1257;61190;-81
2023/05/27 09:58:07;;;;;;;9.60;7.10;;;;;;;28.24;34.90;100387.02;107715;1258;73425;-80
2023/05/27 10:00:36;;;;;;;12.40;7.10;;;;;;;28.10;35.06;100385.48;107718;1257;72732;-80
2023/05/27 10:03:06;;;;;;;7.90;6.80;;;;;;;27.94;34.93;100382.14;107763;1258;72507;-81
2023/05/27 10:05:33;;;;;;;8.50;6.80;;;;;;;27.79;35.41;100379.24;107694;1258;61285;-80
2023/05/27 10:08:01;;;;;;;8.20;7.20;;;;;;;27.65;35.82;100377.45;107731;1257;61164;-80
2023/05/27 10:10:32;;;;;;;9.80;7.50;;;;;;;27.53;36.21;100370.36;107780;1258;73444;-80
2023/05/27 10:13:00;;;;;;;12.80;8.30;;;;;;;27.43;36.69;100365.88;107819;1257;72931;-81
2023/05/27 10:15:29;;;;;;;11.10;8.50;;;;;;;27.34;37.24;100362.02;107730;1258;72605;-79
2023/05/27 10:17:58;;;;;;;10.70;8.50;;;;;;;27.26;37.27;100354.10;107728;1259;61355;-81
2023/05/27 10:20:39;;;;;;;11.40;8.10;;;;;;;27.21;37.71;100351.67;107782;1258;61148;-82
2023/05/27 10:23:27;;;;;;;11.00;8.60;;;;;;;27.24;38.04;100354.92;107722;1257;73377;-80
2023/05/27 10:26:05;;;;;;;9.00;7.60;;;;;;;27.33;37.72;100354.72;107805;1258;72099;-80
2023/05/27 10:28:39;;;;;;;8.50;7.60;;;;;;;27.50;37.49;100347.99;107812;1258;71470;-80
2023/05/27 10:31:29;;;;;;;9.90;7.40;;;;;;;27.74;36.80;100347.38;107683;1259;61253;-80
2023/05/27 10:33:57;;;;;;;8.70;7.20;;;;;;;28.06;36.51;100347.88;107703;1258;59196;-80
2023/05/27 10:36:36;;;;;;;8.60;7.60;;;;;;;28.33;35.97;100354.04;107736;1262;73856;-81
2023/05/27 10:39:05;;;;;;;8.70;7.30;;;;;;;28.56;35.04;100360.40;107775;1257;63773;-81
2023/05/27 10:41:43;;;;;;;7.50;6.70;;;;;;;28.73;34.57;100361.04;107767;1259;71826;-79
2023/05/27 10:44:10;;;;;;;10.20;7.10;;;;;;;28.84;34.06;100359.45;107827;1258;61195;-80
2023/05/27 10:46:40;;;;;;;7.90;6.70;;;;;;;28.93;34.18;100355.63;107820;1258;61254;-79
2023/05/27 10:49:14;;;;;;;7.80;6.90;;;;;;;29.08;34.03;100358.92;107747;1258;74740;-79
2023/05/27 10:51:43;;;;;;;9.60;7.20;;;;;;;29.22;33.58;100359.14;107827;1259;72814;-80
2023/05/27 10:54:12;;;;;;;8.00;7.20;;;;;;;29.27;33.44;100361.27;107799;1258;63834;-80
2023/05/27 10:56:52;;;;;;;8.10;7.20;;;;;;;29.32;33.20;100351.63;107758;1259;61266;-81
2023/05/27 10:59:25;;;;;;;7.90;6.90;;;;;;;29.34;32.96;100351.92;107844;1257;61180;-80
2023/05/27 11:01:53;;;;;;;8.50;7.30;;;;;;;29.36;32.91;100354.70;107788;1259;73779;-80
2023/05/27 11:04:22;;;;;;;8.80;6.60;;;;;;;29.39;33.02;100356.11;107729;1259;62509;-80
2023/05/27 11:07:03;;;;;;;8.80;7.30;;;;;;;29.45;32.45;100356.67;107810;1262;62757;-79
2023/05/27 11:09:42;;;;;;;7.80;7.00;;;;;;;29.48;32.49;100355.18;107730;1259;58996;-80
2023/05/27 11:12:16;;;;;;;9.50;7.00;;;;;;;29.50;32.68;100351.98;107725;1263;61234;-83
2023/05/27 11:14:46;;;;;;;8.60;6.40;;;;;;;29.56;32.39;100345.70;107744;1258;64782;-84
2023/05/27 11:17:14;;;;;;;7.30;6.50;;;;;;;29.63;32.09;100343.20;107833;1257;64049;-82
2023/05/27 11:19:42;;;;;;;9.50;7.00;;;;;;;29.71;32.13;100350.60;107759;1262;64097;-83
2023/05/27 11:22:10;;;;;;;11.60;6.90;;;;;;;29.74;32.32;100346.44;107701;1257;61225;-82
2023/05/27 11:24:38;;;;;;;8.10;6.70;;;;;;;29.73;31.65;100344.47;107799;1262;61740;-82
2023/05/27 11:27:13;;;;;;;9.70;7.00;;;;;;;29.73;31.64;100343.38;107716;1259;65891;-81